Alsip, Illinois
Current Conditions -  °F | °C
As of 3:53 PM on Monday 20 Oct 2014 (Local Time) from KMDW Reporting Station
Broken Clouds Broken Clouds  
Wind Chill: 61°   Ceiling: 6500
Heat Index: 61°   Visibility: 10mi
Dew Point: 50°   Wind: 8mph
Humidity: 67%   Direction: 40°NE
Pressure: 29.87"   Gusts: NA
Location:  41.67°N, 87.73°W
Report Text: KMDW 202053Z 04007KT 10SM SCT048 BKN065 16/10 A2987 RMK AO2 SLP113 T01610100 53009
Loading
Personal Weather Stations






























Interactive Weather Map
Tropical Storm Tracking
New forecast layout! Learn more

10-Day Weather Forecast

Advertisements
Track Severe Weather on mobile